Terminal Aerodrome Forecast
Issued by NWS

Home | Current Version | Previous Version | Text Only | Print | Product List | Glossary On
Versions: 1 2 3 4 5 6 7 8 9 10 11 12
000
FTUS43 KMPX 311700
TAFAXN
TAF
KAXN 311737Z 3118/0118 31008KT P6SM SCT045
     FM010300 31002KT P6SM SKC
     FM011500 33005KT P6SM SCT050=

USA.gov is the U.S. government's official web portal to all federal, state and local government web resources and services.